createdAt,value
2023-01-04T00:01:32.639Z,101866.38
2023-01-04T00:03:59.330Z,101870.25
2023-01-04T00:06:25.994Z,101861.56
2023-01-04T00:08:53.621Z,101862.56
2023-01-04T00:11:22.944Z,101854.00
2023-01-04T00:13:52.666Z,101855.38
2023-01-04T00:16:21.904Z,101860.31
2023-01-04T00:18:50.060Z,101851.88
2023-01-04T00:21:18.281Z,101860.41
2023-01-04T00:23:46.992Z,101864.38
2023-01-04T00:26:15.739Z,101861.88
2023-01-04T00:28:46.967Z,101861.69
2023-01-04T00:31:17.440Z,101866.03
2023-01-04T00:33:44.015Z,101866.72
2023-01-04T00:36:14.908Z,101873.47
2023-01-04T00:38:42.203Z,101873.47
2023-01-04T00:41:23.168Z,101884.66
2023-01-04T00:43:57.113Z,101876.72
2023-01-04T00:46:23.876Z,101883.09
2023-01-04T00:48:52.779Z,101881.75
2023-01-04T00:51:21.896Z,101882.53
2023-01-04T00:53:48.510Z,101883.75
2023-01-04T00:56:15.038Z,101882.91
2023-01-04T00:58:41.737Z,101880.31
2023-01-04T01:01:09.345Z,101865.72
2023-01-04T01:03:38.711Z,101872.53
2023-01-04T01:06:07.874Z,101876.72
2023-01-04T01:08:34.917Z,101876.94
2023-01-04T01:11:09.726Z,101874.81
2023-01-04T01:13:39.290Z,101874.44
2023-01-04T01:16:08.824Z,101875.41
2023-01-04T01:18:36.753Z,101872.66
2023-01-04T01:21:07.621Z,101879.13
2023-01-04T01:23:34.284Z,101875.56
2023-01-04T01:26:02.231Z,101871.31
2023-01-04T01:28:29.245Z,101862.19
2023-01-04T01:30:56.241Z,101848.81
2023-01-04T01:33:22.857Z,101840.84
2023-01-04T01:35:49.446Z,101836.69
2023-01-04T01:38:15.927Z,101831.25
2023-01-04T01:40:43.651Z,101841.06
2023-01-04T01:43:21.595Z,101844.66
2023-01-04T01:45:50.735Z,101852.59
2023-01-04T01:48:22.298Z,101854.16
2023-01-04T01:51:07.276Z,101848.03
2023-01-04T01:53:36.954Z,101850.56
2023-01-04T01:56:05.387Z,101850.28
2023-01-04T01:58:38.151Z,101844.72
2023-01-04T02:01:04.825Z,101849.13
2023-01-04T02:03:40.821Z,101831.34
2023-01-04T02:06:11.082Z,101831.38
2023-01-04T02:08:39.141Z,101840.41
2023-01-04T02:11:05.962Z,101833.31
2023-01-04T02:13:53.556Z,101832.84
2023-01-04T02:16:29.146Z,101829.72
2023-01-04T02:19:22.457Z,101829.22
2023-01-04T02:21:55.265Z,101820.25
2023-01-04T02:24:59.551Z,101818.19
2023-01-04T02:27:41.820Z,101815.53
2023-01-04T02:30:34.672Z,101826.78
2023-01-04T02:33:13.031Z,101821.06
2023-01-04T02:36:16.829Z,101806.03
2023-01-04T02:39:12.572Z,101808.91
2023-01-04T02:41:49.193Z,101794.88
2023-01-04T02:44:49.913Z,101795.19
2023-01-04T02:47:39.682Z,101784.97
2023-01-04T02:50:36.101Z,101781.03
2023-01-04T02:53:13.995Z,101795.22
2023-01-04T02:55:43.702Z,101809.47
2023-01-04T02:58:45.640Z,101805.97
2023-01-04T03:01:53.985Z,101801.75
2023-01-04T03:04:58.099Z,101797.34
2023-01-04T03:07:39.567Z,101803.56
2023-01-04T03:10:15.449Z,101790.06
2023-01-04T03:12:50.816Z,101789.66
2023-01-04T03:15:21.751Z,101809.56
2023-01-04T03:17:55.802Z,101803.78
2023-01-04T03:20:23.390Z,101796.75
2023-01-04T03:23:24.286Z,101796.31
2023-01-04T03:26:18.499Z,101789.22
2023-01-04T03:29:06.252Z,101785.56
2023-01-04T03:32:02.377Z,101785.66
2023-01-04T03:34:47.483Z,101773.63
2023-01-04T03:37:50.025Z,101770.72
2023-01-04T03:40:43.045Z,101759.91
2023-01-04T03:43:42.992Z,101757.72
2023-01-04T03:46:54.777Z,101754.84
2023-01-04T03:49:29.437Z,101754.53
2023-01-04T03:51:58.679Z,101739.91
2023-01-04T03:54:29.284Z,101740.81
2023-01-04T03:56:56.791Z,101729.53
2023-01-04T03:59:24.061Z,101725.59
2023-01-04T04:01:51.054Z,101719.31
2023-01-04T04:04:36.185Z,101716.22
2023-01-04T04:07:21.243Z,101715.00
2023-01-04T04:09:47.827Z,101709.00
2023-01-04T04:12:15.387Z,101694.72
2023-01-04T04:14:41.957Z,101687.69
2023-01-04T04:17:08.474Z,101683.91
2023-01-04T04:19:35.029Z,101682.28
2023-01-04T04:22:01.577Z,101680.66
2023-01-04T04:24:28.260Z,101675.28
2023-01-04T04:26:55.920Z,101669.75
2023-01-04T04:29:23.866Z,101657.69
2023-01-04T04:31:50.943Z,101655.59
2023-01-04T04:34:17.979Z,101650.81
2023-01-04T04:36:44.558Z,101650.88
2023-01-04T04:39:11.892Z,101654.50
2023-01-04T04:41:39.270Z,101650.06
2023-01-04T04:44:10.792Z,101643.81
2023-01-04T04:46:37.756Z,101637.63
2023-01-04T04:49:04.954Z,101631.91
2023-01-04T04:51:31.595Z,101639.59
2023-01-04T04:53:58.336Z,101633.94
2023-01-04T04:56:24.870Z,101626.47
2023-01-04T04:58:51.540Z,101622.31
2023-01-04T05:01:18.582Z,101624.25
2023-01-04T05:03:45.291Z,101618.91
2023-01-04T05:06:11.893Z,101605.06
2023-01-04T05:08:38.482Z,101613.41
2023-01-04T05:11:09.231Z,101597.38
2023-01-04T05:13:35.994Z,101601.28
2023-01-04T05:16:04.279Z,101602.84
2023-01-04T05:18:33.502Z,101609.28
2023-01-04T05:21:00.426Z,101604.09
2023-01-04T05:23:26.969Z,101593.75
2023-01-04T05:25:57.137Z,101596.66
2023-01-04T05:28:23.720Z,101598.28
2023-01-04T05:30:51.375Z,101603.22
2023-01-04T05:33:19.015Z,101595.50
2023-01-04T05:35:45.860Z,101585.13
2023-01-04T05:38:13.568Z,101585.34
2023-01-04T05:40:40.117Z,101573.66
2023-01-04T05:43:06.725Z,101573.38
2023-01-04T05:45:33.412Z,101563.59
2023-01-04T05:48:00.016Z,101555.66
2023-01-04T05:50:26.586Z,101561.94
2023-01-04T05:52:53.446Z,101553.31
2023-01-04T05:55:20.321Z,101545.06
2023-01-04T05:57:47.327Z,101540.44
2023-01-04T06:00:14.911Z,101543.38
2023-01-04T06:02:43.814Z,101536.09
2023-01-04T06:05:11.966Z,101536.97
2023-01-04T06:07:40.044Z,101538.81
2023-01-04T06:10:10.837Z,101526.59
2023-01-04T06:12:38.150Z,101541.75
2023-01-04T06:15:06.121Z,101530.38
2023-01-04T06:17:32.952Z,101516.91
2023-01-04T06:19:59.519Z,101513.78
2023-01-04T06:22:28.195Z,101517.72
2023-01-04T06:24:54.753Z,101508.28
2023-01-04T06:27:22.430Z,101505.94
2023-01-04T06:29:49.018Z,101490.09
2023-01-04T06:32:16.010Z,101488.25
2023-01-04T06:34:42.601Z,101481.97
2023-01-04T06:37:11.984Z,101479.69
2023-01-04T06:39:38.513Z,101480.44
2023-01-04T06:42:06.881Z,101478.13
2023-01-04T06:44:34.016Z,101469.91
2023-01-04T06:47:00.630Z,101457.22
2023-01-04T06:49:27.367Z,101474.09
2023-01-04T06:51:54.958Z,101454.66
2023-01-04T06:54:22.914Z,101446.44
2023-01-04T06:56:49.468Z,101436.06
2023-01-04T06:59:16.078Z,101437.88
2023-01-04T07:01:42.656Z,101428.81
2023-01-04T07:04:09.280Z,101409.84
2023-01-04T07:06:38.890Z,101425.19
2023-01-04T07:09:08.493Z,101408.53
2023-01-04T07:11:35.265Z,101401.00
2023-01-04T07:14:01.841Z,101414.19
2023-01-04T07:16:28.403Z,101400.97
2023-01-04T07:18:55.175Z,101402.50
2023-01-04T07:21:22.283Z,101412.34
2023-01-04T07:23:48.918Z,101398.59
2023-01-04T07:26:18.571Z,101390.25
2023-01-04T07:29:05.294Z,101393.88
2023-01-04T07:31:31.867Z,101389.50
2023-01-04T07:33:58.425Z,101381.47
2023-01-04T07:36:24.990Z,101377.03
2023-01-04T07:38:52.864Z,101381.44
2023-01-04T07:41:19.385Z,101383.50
2023-01-04T07:43:46.542Z,101376.00
2023-01-04T07:46:13.177Z,101377.31
2023-01-04T07:48:39.841Z,101375.28
2023-01-04T07:51:06.783Z,101360.53
2023-01-04T07:53:33.759Z,101358.16
2023-01-04T07:56:00.481Z,101343.91
2023-01-04T07:58:31.346Z,101332.25
2023-01-04T08:01:08.998Z,101321.63
2023-01-04T08:03:35.797Z,101318.00
2023-01-04T08:06:06.964Z,101315.66
2023-01-04T08:08:33.517Z,101308.88
2023-01-04T08:11:08.686Z,101302.66
2023-01-04T08:13:35.333Z,101294.59
2023-01-04T08:16:02.066Z,101285.00
2023-01-04T08:18:28.730Z,101291.50
2023-01-04T08:21:07.675Z,101283.97
2023-01-04T08:23:38.811Z,101269.41
2023-01-04T08:26:07.488Z,101260.91
2023-01-04T08:28:35.931Z,101269.69
2023-01-04T08:31:08.310Z,101267.63
2023-01-04T08:33:36.816Z,101251.28
2023-01-04T08:36:11.607Z,101258.00
2023-01-04T08:38:59.484Z,101260.63
2023-01-04T08:44:16.085Z,101247.94
2023-01-04T08:46:42.673Z,101245.91
2023-01-04T08:49:09.494Z,101232.66
2023-01-04T08:51:36.029Z,101224.66
2023-01-04T08:54:03.560Z,101214.28
2023-01-04T08:56:31.301Z,101211.94
2023-01-04T08:58:57.892Z,101193.81
2023-01-04T09:01:24.499Z,101187.09
2023-01-04T09:03:52.496Z,101174.38
2023-01-04T09:06:19.016Z,101186.31
2023-01-04T09:08:45.590Z,101168.41
2023-01-04T09:11:20.208Z,101157.78
2023-01-04T09:13:47.432Z,101142.97
2023-01-04T09:16:16.947Z,101144.81
2023-01-04T09:18:44.240Z,101149.72
2023-01-04T09:21:14.042Z,101146.63
2023-01-04T09:23:41.127Z,101125.88
2023-01-04T09:26:12.068Z,101123.78
2023-01-04T09:28:39.390Z,101116.81
2023-01-04T09:31:11.277Z,101112.13
2023-01-04T09:34:12.832Z,101112.63
2023-01-04T09:36:27.572Z,101100.44
2023-01-04T09:38:55.512Z,101085.38
2023-01-04T09:41:35.826Z,101091.38
2023-01-04T09:44:04.628Z,101078.91
2023-01-04T09:46:37.425Z,101067.72
2023-01-04T09:49:30.154Z,101050.34
2023-01-04T09:52:09.372Z,101049.84
2023-01-04T09:54:44.664Z,101027.00
2023-01-04T09:57:25.467Z,101023.34
2023-01-04T09:59:57.698Z,101007.00
2023-01-04T10:02:46.309Z,100997.94
2023-01-04T10:05:32.926Z,100980.53
2023-01-04T10:07:59.499Z,100979.97
2023-01-04T10:10:46.067Z,100972.19
2023-01-04T10:13:40.969Z,100953.53
2023-01-04T10:17:11.414Z,100950.69
2023-01-04T10:22:52.195Z,100929.09
2023-01-04T10:25:31.806Z,100908.09
2023-01-04T10:28:36.997Z,100910.41
2023-01-04T10:31:39.780Z,100902.09
2023-01-04T10:34:06.958Z,100892.19
2023-01-04T10:36:33.968Z,100875.88
2023-01-04T10:39:13.842Z,100877.41
2023-01-04T10:41:50.697Z,100895.84
2023-01-04T10:44:52.976Z,100869.63
2023-01-04T10:47:58.549Z,100849.09
2023-01-04T10:50:31.396Z,100843.66
2023-01-04T10:53:27.277Z,100819.47
2023-01-04T10:56:25.597Z,100810.91
2023-01-04T10:59:10.438Z,100808.03
2023-01-04T11:01:52.356Z,100794.78
2023-01-04T11:04:38.155Z,100774.81
2023-01-04T11:07:17.615Z,100775.78
2023-01-04T11:10:07.734Z,100764.41
2023-01-04T11:12:34.332Z,100770.34
2023-01-04T11:15:00.915Z,100757.59
2023-01-04T11:17:28.565Z,100745.16
2023-01-04T11:20:01.827Z,100735.03
2023-01-04T11:22:39.469Z,100708.25
2023-01-04T11:28:07.449Z,100700.72
2023-01-04T11:31:09.476Z,100680.47
2023-01-04T11:33:59.102Z,100682.72
2023-01-04T11:36:33.620Z,100679.91
2023-01-04T11:39:01.611Z,100672.91
2023-01-04T11:41:28.797Z,100666.44
2023-01-04T11:44:07.079Z,100664.28
2023-01-04T11:46:34.509Z,100663.75
2023-01-04T11:49:01.418Z,100642.44
2023-01-04T11:51:39.963Z,100641.59
2023-01-04T11:54:15.682Z,100615.88
2023-01-04T11:57:11.122Z,100602.59
2023-01-04T11:59:38.497Z,100612.22
2023-01-04T12:03:00.207Z,100608.31
2023-01-04T12:08:38.410Z,100583.09
2023-01-04T12:11:06.216Z,100564.63
2023-01-04T12:13:33.678Z,100550.88
2023-01-04T12:16:03.198Z,100541.94
2023-01-04T12:18:35.705Z,100528.97
2023-01-04T12:21:03.226Z,100517.25
2023-01-04T12:23:30.045Z,100505.25
2023-01-04T12:25:58.122Z,100496.59
2023-01-04T12:28:37.097Z,100494.78
2023-01-04T12:31:26.022Z,100470.56
2023-01-04T12:34:18.424Z,100465.63
2023-01-04T12:36:50.942Z,100450.81
2023-01-04T12:39:29.288Z,100445.84
2023-01-04T12:42:02.004Z,100438.03
2023-01-04T12:44:37.785Z,100416.38
2023-01-04T12:47:38.295Z,100412.44
2023-01-04T12:50:15.251Z,100394.47
2023-01-04T12:53:02.411Z,100384.25
2023-01-04T12:55:31.365Z,100375.72
2023-01-04T12:58:02.726Z,100359.06
2023-01-04T13:00:52.556Z,100352.53
2023-01-04T13:03:21.103Z,100341.25
2023-01-04T13:06:00.696Z,100341.66
2023-01-04T13:08:27.919Z,100313.06
2023-01-04T13:10:56.278Z,100302.66
2023-01-04T13:13:58.398Z,100291.38
2023-01-04T13:16:41.501Z,100286.69
2023-01-04T13:19:26.742Z,100276.47
2023-01-04T13:21:53.858Z,100268.06
2023-01-04T13:24:27.465Z,100263.19
2023-01-04T13:26:57.766Z,100262.31
2023-01-04T13:29:33.801Z,100243.03
2023-01-04T13:32:05.430Z,100252.28
2023-01-04T13:34:45.324Z,100233.00
2023-01-04T13:37:11.802Z,100222.78
2023-01-04T13:39:52.252Z,100215.94
2023-01-04T13:42:25.139Z,100208.63
2023-01-04T13:45:29.312Z,100200.34
2023-01-04T13:47:58.702Z,100199.75
2023-01-04T13:50:31.264Z,100173.75
2023-01-04T13:53:08.089Z,100174.41
2023-01-04T13:55:38.772Z,100166.00
2023-01-04T13:58:15.026Z,100153.50
2023-01-04T14:00:51.278Z,100163.00
2023-01-04T14:03:36.895Z,100147.84
2023-01-04T14:06:19.866Z,100150.75
2023-01-04T14:08:54.342Z,100131.78
2023-01-04T14:11:44.282Z,100128.56
2023-01-04T14:14:24.372Z,100125.22
2023-01-04T14:16:51.844Z,100103.63
2023-01-04T14:19:51.366Z,100102.88
2023-01-04T14:22:23.105Z,100089.56
2023-01-04T14:25:09.447Z,100091.69
2023-01-04T14:27:42.754Z,100082.25
2023-01-04T14:30:18.593Z,100070.47
2023-01-04T14:33:04.069Z,100067.25
2023-01-04T14:35:31.003Z,100052.44
2023-01-04T14:38:06.692Z,100046.63
2023-01-04T14:40:33.750Z,100032.53
2023-01-04T14:43:01.595Z,100033.78
2023-01-04T14:45:28.265Z,100024.00
2023-01-04T14:47:54.996Z,100013.91
2023-01-04T14:50:24.565Z,100025.84
2023-01-04T14:52:52.171Z,100006.88
2023-01-04T14:55:22.065Z,100009.47
2023-01-04T14:57:50.723Z,99998.50
2023-01-04T15:00:19.813Z,99987.34
2023-01-04T15:02:52.450Z,99989.97
2023-01-04T15:05:39.117Z,99987.22
2023-01-04T15:08:14.569Z,99978.19
2023-01-04T15:10:44.033Z,99980.19
2023-01-04T15:13:12.013Z,99965.81
2023-01-04T15:15:44.078Z,99957.53
2023-01-04T15:18:10.668Z,99954.63
2023-01-04T15:20:39.808Z,99946.03
2023-01-04T15:23:07.249Z,99947.56
2023-01-04T15:25:34.776Z,99941.13
2023-01-04T15:28:03.647Z,99928.25
2023-01-04T15:30:32.856Z,99919.06
2023-01-04T15:33:05.151Z,99918.91
2023-01-04T15:35:31.884Z,99920.44
2023-01-04T15:37:58.553Z,99896.25
2023-01-04T15:40:25.313Z,99898.84
2023-01-04T15:43:00.898Z,99889.31
2023-01-04T15:45:36.039Z,99888.69
2023-01-04T15:48:10.317Z,99886.53
2023-01-04T15:50:38.901Z,99872.91
2023-01-04T15:53:14.709Z,99862.00
2023-01-04T15:55:41.395Z,99858.78
2023-01-04T15:58:11.851Z,99837.16
2023-01-04T16:00:38.585Z,99838.53
2023-01-04T16:03:06.020Z,99832.72
2023-01-04T16:05:32.610Z,99819.34
2023-01-04T16:07:59.277Z,99810.78
2023-01-04T16:10:26.531Z,99808.31
2023-01-04T16:12:58.129Z,99798.47
2023-01-04T16:15:30.049Z,99792.03
2023-01-04T16:17:56.585Z,99785.91
2023-01-04T16:20:23.370Z,99781.59
2023-01-04T16:22:51.688Z,99778.53
2023-01-04T16:25:20.281Z,99763.53
2023-01-04T16:27:47.268Z,99759.50
2023-01-04T16:30:14.562Z,99759.22
2023-01-04T16:32:44.553Z,99751.84
2023-01-04T16:35:11.552Z,99756.25
2023-01-04T16:37:38.346Z,99759.31
2023-01-04T16:40:07.312Z,99751.94
2023-01-04T16:42:35.404Z,99739.97
2023-01-04T16:45:02.222Z,99743.63
2023-01-04T16:47:28.827Z,99740.38
2023-01-04T16:49:55.505Z,99731.16
2023-01-04T16:52:22.184Z,99724.41
2023-01-04T16:54:53.143Z,99730.66
2023-01-04T16:57:37.683Z,99722.94
2023-01-04T17:00:05.988Z,99729.50
2023-01-04T17:02:37.243Z,99703.28
2023-01-04T17:05:04.433Z,99707.38
2023-01-04T17:10:13.178Z,99694.25
2023-01-04T17:12:49.415Z,99676.91
2023-01-04T17:15:50.678Z,99668.72
2023-01-04T17:18:03.644Z,99671.56
2023-01-04T17:20:30.219Z,99669.94
2023-01-04T17:22:56.729Z,99659.88
2023-01-04T17:25:25.605Z,99663.69
2023-01-04T17:28:16.535Z,99650.09
2023-01-04T17:30:45.280Z,99646.09
2023-01-04T17:33:11.939Z,99644.38
2023-01-04T17:35:39.429Z,99636.19
2023-01-04T17:38:06.899Z,99645.88
2023-01-04T17:40:33.550Z,99633.94
2023-01-04T17:43:00.289Z,99627.53
2023-01-04T17:45:26.943Z,99617.91
2023-01-04T17:47:53.612Z,99618.59
2023-01-04T17:50:21.432Z,99615.81
2023-01-04T17:52:51.568Z,99610.38
2023-01-04T17:55:19.185Z,99610.94
2023-01-04T17:57:45.986Z,99601.88
2023-01-04T18:00:15.008Z,99589.81
2023-01-04T18:02:42.916Z,99584.81
2023-01-04T18:05:12.545Z,99587.94
2023-01-04T18:07:39.124Z,99568.38
2023-01-04T18:10:21.483Z,99569.91
2023-01-04T18:13:01.540Z,99576.19
2023-01-04T18:15:28.118Z,99565.09
2023-01-04T18:17:54.632Z,99564.78
2023-01-04T18:20:24.919Z,99557.47
2023-01-04T18:22:51.885Z,99545.06
2023-01-04T18:25:18.440Z,99544.72
2023-01-04T18:27:45.025Z,99535.56
2023-01-04T18:30:14.768Z,99535.91
2023-01-04T18:32:41.655Z,99532.28
2023-01-04T18:35:08.570Z,99513.69
2023-01-04T18:37:35.837Z,99525.34
2023-01-04T18:40:05.693Z,99516.84
2023-01-04T18:42:32.448Z,99513.00
2023-01-04T18:44:59.045Z,99493.31
2023-01-04T18:47:26.665Z,99506.94
2023-01-04T18:49:53.217Z,99505.31
2023-01-04T18:52:21.368Z,99494.00
2023-01-04T18:54:48.657Z,99500.84
2023-01-04T18:57:25.148Z,99486.56
2023-01-04T18:59:54.907Z,99480.47
2023-01-04T19:02:22.302Z,99485.09
2023-01-04T19:04:49.198Z,99470.34
2023-01-04T19:07:17.816Z,99480.63
2023-01-04T19:09:44.507Z,99469.09
2023-01-04T19:12:11.321Z,99453.88
2023-01-04T19:14:37.982Z,99457.88
2023-01-04T19:17:04.638Z,99458.03
2023-01-04T19:19:31.264Z,99452.16
2023-01-04T19:21:59.920Z,99444.31
2023-01-04T19:24:28.732Z,99450.53
2023-01-04T19:26:55.918Z,99433.84
2023-01-04T19:29:25.169Z,99439.16
2023-01-04T19:31:51.717Z,99443.38
2023-01-04T19:34:19.402Z,99450.47
2023-01-04T19:36:49.114Z,99441.44
2023-01-04T19:39:15.679Z,99439.16
2023-01-04T19:41:42.198Z,99436.13
2023-01-04T19:44:11.134Z,99457.97
2023-01-04T19:46:38.692Z,99437.63
2023-01-04T19:49:10.679Z,99426.91
2023-01-04T19:51:45.122Z,99427.41
2023-01-04T19:54:12.246Z,99429.34
2023-01-04T19:56:39.737Z,99412.69
2023-01-04T19:59:06.841Z,99418.00
2023-01-04T20:01:34.101Z,99422.28
2023-01-04T20:04:00.786Z,99419.47
2023-01-04T20:06:28.449Z,99417.19
2023-01-04T20:08:55.049Z,99416.00
2023-01-04T20:11:27.837Z,99420.00
2023-01-04T20:24:07.301Z,99402.19
2023-01-04T20:26:55.184Z,99385.56
2023-01-04T20:29:28.948Z,99390.53
2023-01-04T20:31:56.086Z,99390.66
2023-01-04T20:34:22.625Z,99394.34
2023-01-04T20:36:49.131Z,99394.19
2023-01-04T20:39:19.258Z,99387.16
2023-01-04T20:42:04.536Z,99390.13
2023-01-04T20:44:31.629Z,99391.72
2023-01-04T20:46:58.172Z,99395.84
2023-01-04T20:49:24.776Z,99394.16
2023-01-04T20:51:51.340Z,99399.91
2023-01-04T20:54:17.928Z,99400.84
2023-01-04T20:56:44.586Z,99392.66
2023-01-04T20:59:11.417Z,99401.69
2023-01-04T21:01:38.052Z,99403.66
2023-01-04T21:04:04.991Z,99390.22
2023-01-04T21:06:32.903Z,99384.56
2023-01-04T21:08:59.417Z,99385.31
2023-01-04T21:11:25.976Z,99381.06
2023-01-04T21:13:52.914Z,99381.88
2023-01-04T21:16:19.619Z,99381.75
2023-01-04T21:18:46.225Z,99369.19
2023-01-04T21:21:15.232Z,99369.94
2023-01-04T21:23:43.377Z,99365.09
2023-01-04T21:26:18.423Z,99357.19
2023-01-04T21:28:45.531Z,99350.69
2023-01-04T21:31:15.468Z,99337.09
2023-01-04T21:33:46.686Z,99343.47
2023-01-04T21:36:21.538Z,99331.03
2023-01-04T21:38:52.064Z,99328.72
2023-01-04T21:41:18.977Z,99342.25
2023-01-04T21:43:45.571Z,99325.84
2023-01-04T21:46:15.083Z,99322.88
2023-01-04T21:48:43.659Z,99310.03
2023-01-04T21:51:13.324Z,99312.25
2023-01-04T21:53:40.787Z,99300.94
2023-01-04T21:56:09.959Z,99310.81
2023-01-04T21:58:36.539Z,99306.84
2023-01-04T22:01:15.681Z,99299.34
2023-01-04T22:03:42.415Z,99303.81
2023-01-04T22:06:09.389Z,99289.06
2023-01-04T22:08:36.181Z,99292.03
2023-01-04T22:11:04.276Z,99283.06
2023-01-04T22:13:31.070Z,99276.31
2023-01-04T22:15:58.134Z,99283.81
2023-01-04T22:18:24.699Z,99271.28
2023-01-04T22:20:54.526Z,99270.19
2023-01-04T22:23:23.151Z,99269.72
2023-01-04T22:25:51.003Z,99269.03
2023-01-04T22:28:17.528Z,99261.84
2023-01-04T22:30:44.155Z,99259.22
2023-01-04T22:33:10.684Z,99259.13
2023-01-04T22:35:39.566Z,99262.03
2023-01-04T22:38:06.552Z,99262.06
2023-01-04T22:40:33.433Z,99249.44
2023-01-04T22:42:59.992Z,99246.84
2023-01-04T22:45:26.710Z,99249.91
2023-01-04T22:47:53.223Z,99240.53
2023-01-04T22:50:19.737Z,99241.59
2023-01-04T22:52:50.965Z,99238.56
2023-01-04T22:55:17.984Z,99238.56
2023-01-04T22:57:44.969Z,99248.22
2023-01-04T23:00:14.868Z,99247.16
2023-01-04T23:02:44.093Z,99240.63
2023-01-04T23:05:12.203Z,99253.69
2023-01-04T23:07:38.891Z,99255.63
2023-01-04T23:10:05.842Z,99247.50
2023-01-04T23:12:32.388Z,99258.44
2023-01-04T23:15:00.313Z,99243.03
2023-01-04T23:17:26.849Z,99232.56
2023-01-04T23:19:54.569Z,99239.31
2023-01-04T23:22:22.666Z,99229.28
2023-01-04T23:24:49.360Z,99237.03
2023-01-04T23:27:16.921Z,99230.94
2023-01-04T23:29:43.512Z,99222.00
2023-01-04T23:32:10.108Z,99215.88
2023-01-04T23:34:36.643Z,99218.63
2023-01-04T23:37:03.343Z,99220.72
2023-01-04T23:39:29.911Z,99214.44
2023-01-04T23:41:58.731Z,99225.81
2023-01-04T23:44:27.997Z,69927.09
2023-01-04T23:49:30.869Z,69927.09
2023-01-04T23:51:59.305Z,69927.09
2023-01-04T23:54:27.115Z,69927.09
2023-01-04T23:56:54.367Z,69927.09
2023-01-04T23:59:24.475Z,69927.09
